Map

Track Data

SID SEASON NUMBER BASIN SUBBASIN NAME ISO_TIME NATURE LAT LON WMO_WIND WMO_PRES WMO_AGENCY TRACK_TYPE DIST2LAND LANDFALL IFLAG USA_AGENCY USA_ATCF_ID USA_LAT USA_LON USA_RECORD USA_STATUS USA_WIND USA_PRES USA_SSHS USA_R34_NE USA_R34_SE USA_R34_SW USA_R34_NW USA_R50_NE USA_R50_SE USA_R50_SW USA_R50_NW USA_R64_NE USA_R64_SE USA_R64_SW USA_R64_NW USA_POCI USA_ROCI USA_RMW USA_EYE TOKYO_LAT TOKYO_LON TOKYO_GRADE TOKYO_WIND TOKYO_PRES TOKYO_R50_DIR TOKYO_R50_LONG TOKYO_R50_SHORT TOKYO_R30_DIR TOKYO_R30_LONG TOKYO_R30_SHORT TOKYO_LAND CMA_LAT CMA_LON CMA_CAT CMA_WIND CMA_PRES HKO_LAT HKO_LON HKO_CAT HKO_WIND HKO_PRES NEWDELHI_LAT NEWDELHI_LON NEWDELHI_GRADE NEWDELHI_WIND NEWDELHI_PRES NEWDELHI_CI NEWDELHI_DP NEWDELHI_POCI REUNION_LAT REUNION_LON REUNION_TYPE REUNION_WIND REUNION_PRES REUNION_TNUM REUNION_CI REUNION_RMW REUNION_R34_NE REUNION_R34_SE REUNION_R34_SW REUNION_R34_NW REUNION_R50_NE REUNION_R50_SE REUNION_R50_SW REUNION_R50_NW REUNION_R64_NE REUNION_R64_SE REUNION_R64_SW REUNION_R64_NW BOM_LAT BOM_LON BOM_TYPE BOM_WIND BOM_PRES BOM_TNUM BOM_CI BOM_RMW BOM_R34_NE BOM_R34_SE BOM_R34_SW BOM_R34_NW BOM_R50_NE BOM_R50_SE BOM_R50_SW BOM_R50_NW BOM_R64_NE BOM_R64_SE BOM_R64_SW BOM_R64_NW BOM_ROCI BOM_POCI BOM_EYE BOM_POS_METHOD BOM_PRES_METHOD NADI_LAT NADI_LON NADI_CAT NADI_WIND NADI_PRES WELLINGTON_LAT WELLINGTON_LON WELLINGTON_WIND WELLINGTON_PRES DS824_LAT DS824_LON DS824_STAGE DS824_WIND DS824_PRES TD9636_LAT TD9636_LON TD9636_STAGE TD9636_WIND TD9636_PRES TD9635_LAT TD9635_LON TD9635_WIND TD9635_PRES TD9635_ROCI NEUMANN_LAT NEUMANN_LON NEUMANN_CLASS NEUMANN_WIND NEUMANN_PRES MLC_LAT MLC_LON MLC_CLASS MLC_WIND MLC_PRES USA_GUST BOM_GUST BOM_GUST_PER REUNION_GUST REUNION_GUST_PER USA_SEAHGT USA_SEARAD_NE USA_SEARAD_SE USA_SEARAD_SW USA_SEARAD_NW STORM_SPEED STORM_DIR
1907174N20090 1907 27 NI BB NOT_NAMED 1907-06-23 00:00:00 TS 20.5000 90.0000 main 145 134 _________O____ -1 20.5000 90.0000 TC 34 1 327
1907174N20090 1907 27 NI BB NOT_NAMED 1907-06-23 03:00:00 TS 20.5667 89.9667 main 134 123 _________PO___ -1 20.6000 89.9500 TC 36 20.5000 90.0000 2 2 333
1907174N20090 1907 27 NI BB NOT_NAMED 1907-06-23 06:00:00 TS 20.6656 89.9170 main 123 112 _________OP___ -1 20.7000 89.9000 TC 39 20.6141 89.9424 2 2 333
1907174N20090 1907 27 NI BB NOT_NAMED 1907-06-23 09:00:00 TS 20.7668 89.8662 main 112 98 _________PP___ -1 20.8000 89.8500 TC 42 20.7226 89.8878 2 2 336
1907174N20090 1907 27 NI BB NOT_NAMED 1907-06-23 12:00:00 TS 20.8599 89.8196 main 98 98 _________OP___ -1 20.9000 89.8000 TC 45 20.8197 89.8393 2 2 335
1907174N20090 1907 27 NI BB NOT_NAMED 1907-06-23 15:00:00 TS 20.9500 89.7750 main 88 84 _________PO___ -1 21.0000 89.7500 TC 45 20.9000 89.8000 3 2 335
1907174N20090 1907 27 NI BB NOT_NAMED 1907-06-23 18:00:00 TS 21.0317 89.7350 main 84 73 _________OP___ -1 21.1000 89.7000 TC 45 20.9634 89.7700 3 2 335
1907174N20090 1907 27 NI BB NOT_NAMED 1907-06-23 21:00:00 TS 21.0974 89.7009 main 73 59 _________PP___ -1 21.1625 89.6649 TC 45 21.0324 89.7369 3 2 335
1907174N20090 1907 27 NI BB NOT_NAMED 1907-06-24 00:00:00 TS 21.2176 89.6427 main 59 35 _________OP___ -1 21.3000 89.6000 TC 45 21.1352 89.6854 3 4 337
1907174N20090 1907 27 NI BB NOT_NAMED 1907-06-24 03:00:00 TS 21.4600 89.5363 main 24 0 _________PO___ -1 21.6200 89.4726 TC 41 21.3000 89.6000 3 6 338
1907174N20090 1907 27 NI BB NOT_NAMED 1907-06-24 06:00:00 TS 21.7923 89.3867 main 0 0 _________OP___ -1 22.0000 89.3000 TC 37 21.5847 89.4735 3 7 335
1907174N20090 1907 27 NI BB NOT_NAMED 1907-06-24 09:00:00 TS 22.1212 89.2090 main 0 0 _________PP___ -1 22.3150 89.1075 TC 33 21.9275 89.3105 3 7 332
1907174N20090 1907 27 NI BB NOT_NAMED 1907-06-24 12:00:00 TS 22.4408 89.0086 main 0 0 _________OP___ -1 22.6000 88.9000 TC 30 22.2815 89.1172 3 7 329
1907174N20090 1907 27 NI BB NOT_NAMED 1907-06-24 15:00:00 TS 22.7400 88.8075 main 0 0 _________PO___ -1 22.8799 88.7150 TC 30 22.6000 88.9000 1 7 325
1907174N20090 1907 27 NI BB NOT_NAMED 1907-06-24 18:00:00 TS 22.9751 88.6020 main 0 0 _________OP___ -1 23.1000 88.5000 TC 30 22.8502 88.7041 1 6 315
1907174N20090 1907 27 NI BB NOT_NAMED 1907-06-24 21:00:00 TS 23.1458 88.3600 main 0 0 _________PP___ -1 23.2374 88.2375 TC 30 23.0543 88.4826 1 6 299
1907174N20090 1907 27 NI BB NOT_NAMED 1907-06-25 00:00:00 TS 23.2531 88.0599 main 0 0 _________OP___ -1 23.3000 87.9000 TC 30 23.2063 88.2199 1 6 285
1907174N20090 1907 27 NI BB NOT_NAMED 1907-06-25 03:00:00 TS 23.3113 87.6862 main 0 0 _________PO___ -1 23.3225 87.4725 TC 30 23.3000 87.9000 1 7 275
1907174N20090 1907 27 NI BB NOT_NAMED 1907-06-25 06:00:00 TS 23.3246 87.2475 main 0 0 _________OP___ -1 23.3000 87.0000 TC 30 23.3493 87.4950 1 8 269
1907174N20090 1907 27 NI BB NOT_NAMED 1907-06-25 09:00:00 TS 23.3028 86.7898 main 0 0 _________PP___ -1 23.2649 86.5425 TC 30 23.3407 87.0372 1 8 264
1907174N20090 1907 27 NI BB NOT_NAMED 1907-06-25 12:00:00 TS 23.2434 86.3304 main 0 0 _________OP___ -1 23.2000 86.1000 TC 30 23.2867 86.5608 1 8 260
1907174N20090 1907 27 NI BB NOT_NAMED 1907-06-25 15:00:00 TS 23.1574 85.8925 main 0 0 _________PO___ -1 23.1149 85.6851 TC 30 23.2000 86.1000 1 8 256
1907174N20090 1907 27 NI BB NOT_NAMED 1907-06-25 18:00:00 TS 23.0527 85.5178 main 0 0 _________OP___ -1 23.0000 85.3000 TC 30 23.0923 85.6812 1 7 251
1907174N20090 1907 27 NI BB NOT_NAMED 1907-06-25 21:00:00 TS 22.9250 85.1568 main 0 0 _________PP___ -1 22.8576 84.9423 TC 30 22.9699 85.2997 1 7 248
1907174N20090 1907 27 NI BB NOT_NAMED 1907-06-26 00:00:00 TS 22.7917 84.8289 main 0 0 _________OP___ -1 22.7000 84.6000 TC 30 22.8376 84.9434 1 6 246
1907174N20090 1907 27 NI BB NOT_NAMED 1907-06-26 03:00:00 NR 22.7000 84.6000 main 0 __________O___ -1 TC 22.7000 84.6000 1 5 246

About IBTrACS Database

This database is a web-friendly format of International Best Track Archive for Climate Stewardship (IBTrACS), a global best track data archive curated by NOAA dating back to 1842.

Updated: 2021-11-26